sensor_id;sensor_type;location;lat;lon;timestamp;P1;durP1;ratioP1;P2;durP2;ratioP2
83278;SDS011;73398;51.844;10.790;2023-11-18T00:00:31;10.73;;;5.65;;
83278;SDS011;73398;51.844;10.790;2023-11-18T00:02:58;8.65;;;5.35;;
83278;SDS011;73398;51.844;10.790;2023-11-18T00:05:24;7.35;;;5.20;;
83278;SDS011;73398;51.844;10.790;2023-11-18T00:07:50;6.97;;;4.97;;
83278;SDS011;73398;51.844;10.790;2023-11-18T00:10:16;7.43;;;5.15;;
83278;SDS011;73398;51.844;10.790;2023-11-18T00:12:42;8.13;;;4.75;;
83278;SDS011;73398;51.844;10.790;2023-11-18T00:15:08;8.57;;;5.10;;
83278;SDS011;73398;51.844;10.790;2023-11-18T00:17:36;9.32;;;5.10;;
83278;SDS011;73398;51.844;10.790;2023-11-18T00:20:02;7.55;;;4.95;;
83278;SDS011;73398;51.844;10.790;2023-11-18T00:22:33;7.30;;;5.00;;
83278;SDS011;73398;51.844;10.790;2023-11-18T00:24:59;7.55;;;4.88;;
83278;SDS011;73398;51.844;10.790;2023-11-18T00:27:25;8.65;;;5.28;;
83278;SDS011;73398;51.844;10.790;2023-11-18T00:29:51;8.20;;;5.25;;
83278;SDS011;73398;51.844;10.790;2023-11-18T00:32:18;9.23;;;5.35;;
83278;SDS011;73398;51.844;10.790;2023-11-18T00:34:44;11.45;;;6.53;;
83278;SDS011;73398;51.844;10.790;2023-11-18T00:37:10;13.07;;;6.30;;
83278;SDS011;73398;51.844;10.790;2023-11-18T00:39:36;11.23;;;6.90;;
83278;SDS011;73398;51.844;10.790;2023-11-18T00:42:02;12.27;;;7.47;;
83278;SDS011;73398;51.844;10.790;2023-11-18T00:44:28;22.80;;;11.38;;
83278;SDS011;73398;51.844;10.790;2023-11-18T00:46:54;17.88;;;9.93;;
83278;SDS011;73398;51.844;10.790;2023-11-18T00:49:22;16.73;;;9.10;;
83278;SDS011;73398;51.844;10.790;2023-11-18T00:51:48;18.40;;;9.85;;
83278;SDS011;73398;51.844;10.790;2023-11-18T00:54:14;15.55;;;8.77;;
83278;SDS011;73398;51.844;10.790;2023-11-18T00:56:40;18.10;;;10.07;;
83278;SDS011;73398;51.844;10.790;2023-11-18T00:59:06;24.77;;;10.85;;
83278;SDS011;73398;51.844;10.790;2023-11-18T01:01:32;19.90;;;10.73;;
83278;SDS011;73398;51.844;10.790;2023-11-18T01:03:58;18.55;;;9.63;;
83278;SDS011;73398;51.844;10.790;2023-11-18T01:06:25;20.20;;;10.60;;
83278;SDS011;73398;51.844;10.790;2023-11-18T01:08:51;21.48;;;11.35;;
83278;SDS011;73398;51.844;10.790;2023-11-18T01:11:18;19.10;;;10.68;;
83278;SDS011;73398;51.844;10.790;2023-11-18T01:13:47;23.52;;;12.13;;
83278;SDS011;73398;51.844;10.790;2023-11-18T01:16:13;25.73;;;13.32;;
83278;SDS011;73398;51.844;10.790;2023-11-18T01:18:40;21.25;;;11.77;;
83278;SDS011;73398;51.844;10.790;2023-11-18T01:21:05;22.83;;;11.50;;
83278;SDS011;73398;51.844;10.790;2023-11-18T01:23:34;22.63;;;11.07;;
83278;SDS011;73398;51.844;10.790;2023-11-18T01:26:00;21.17;;;11.38;;
83278;SDS011;73398;51.844;10.790;2023-11-18T01:28:25;18.65;;;10.27;;
83278;SDS011;73398;51.844;10.790;2023-11-18T01:30:54;16.63;;;9.63;;
83278;SDS011;73398;51.844;10.790;2023-11-18T01:33:20;16.38;;;9.95;;
83278;SDS011;73398;51.844;10.790;2023-11-18T01:35:47;20.42;;;10.68;;
83278;SDS011;73398;51.844;10.790;2023-11-18T01:38:13;22.70;;;11.45;;
83278;SDS011;73398;51.844;10.790;2023-11-18T01:40:39;20.08;;;11.45;;
83278;SDS011;73398;51.844;10.790;2023-11-18T01:43:08;21.63;;;12.23;;
83278;SDS011;73398;51.844;10.790;2023-11-18T01:45:37;21.85;;;12.10;;
83278;SDS011;73398;51.844;10.790;2023-11-18T01:48:03;22.73;;;12.68;;
83278;SDS011;73398;51.844;10.790;2023-11-18T01:50:30;21.17;;;11.73;;
83278;SDS011;73398;51.844;10.790;2023-11-18T01:52:56;21.13;;;11.77;;
83278;SDS011;73398;51.844;10.790;2023-11-18T01:55:22;21.98;;;12.60;;
83278;SDS011;73398;51.844;10.790;2023-11-18T01:57:48;19.48;;;10.80;;
83278;SDS011;73398;51.844;10.790;2023-11-18T02:00:16;22.17;;;11.63;;
83278;SDS011;73398;51.844;10.790;2023-11-18T02:02:42;21.45;;;12.13;;
83278;SDS011;73398;51.844;10.790;2023-11-18T02:05:08;21.40;;;11.55;;
83278;SDS011;73398;51.844;10.790;2023-11-18T02:07:37;22.58;;;11.07;;
83278;SDS011;73398;51.844;10.790;2023-11-18T02:10:04;19.70;;;10.57;;
83278;SDS011;73398;51.844;10.790;2023-11-18T02:12:37;22.33;;;11.68;;
83278;SDS011;73398;51.844;10.790;2023-11-18T02:17:35;17.65;;;10.30;;
83278;SDS011;73398;51.844;10.790;2023-11-18T02:20:03;21.52;;;12.05;;
83278;SDS011;73398;51.844;10.790;2023-11-18T02:22:35;21.30;;;11.05;;
83278;SDS011;73398;51.844;10.790;2023-11-18T02:25:01;21.88;;;11.02;;
83278;SDS011;73398;51.844;10.790;2023-11-18T02:27:31;23.35;;;11.48;;
83278;SDS011;73398;51.844;10.790;2023-11-18T02:29:57;21.85;;;11.27;;
83278;SDS011;73398;51.844;10.790;2023-11-18T02:32:23;21.90;;;11.48;;
83278;SDS011;73398;51.844;10.790;2023-11-18T02:37:35;20.42;;;10.68;;
83278;SDS011;73398;51.844;10.790;2023-11-18T02:40:03;20.27;;;11.75;;
83278;SDS011;73398;51.844;10.790;2023-11-18T02:42:40;18.65;;;9.73;;
83278;SDS011;73398;51.844;10.790;2023-11-18T02:45:07;19.58;;;10.10;;
83278;SDS011;73398;51.844;10.790;2023-11-18T02:47:37;17.83;;;10.00;;
83278;SDS011;73398;51.844;10.790;2023-11-18T02:50:04;18.05;;;10.02;;
83278;SDS011;73398;51.844;10.790;2023-11-18T02:52:31;21.30;;;10.70;;
83278;SDS011;73398;51.844;10.790;2023-11-18T02:54:58;21.25;;;10.77;;
83278;SDS011;73398;51.844;10.790;2023-11-18T02:57:24;19.40;;;10.77;;
83278;SDS011;73398;51.844;10.790;2023-11-18T02:59:50;19.83;;;10.52;;
83278;SDS011;73398;51.844;10.790;2023-11-18T03:02:16;17.23;;;9.90;;
83278;SDS011;73398;51.844;10.790;2023-11-18T03:04:45;19.88;;;10.43;;
83278;SDS011;73398;51.844;10.790;2023-11-18T03:07:11;19.85;;;10.02;;
83278;SDS011;73398;51.844;10.790;2023-11-18T03:09:37;19.17;;;10.40;;
83278;SDS011;73398;51.844;10.790;2023-11-18T03:12:05;15.50;;;9.55;;
83278;SDS011;73398;51.844;10.790;2023-11-18T03:14:32;16.52;;;9.25;;
83278;SDS011;73398;51.844;10.790;2023-11-18T03:16:59;15.90;;;8.85;;
83278;SDS011;73398;51.844;10.790;2023-11-18T03:19:25;16.27;;;9.68;;
83278;SDS011;73398;51.844;10.790;2023-11-18T03:21:51;20.58;;;10.75;;
83278;SDS011;73398;51.844;10.790;2023-11-18T03:24:21;17.85;;;10.27;;
83278;SDS011;73398;51.844;10.790;2023-11-18T03:26:46;18.75;;;10.13;;
83278;SDS011;73398;51.844;10.790;2023-11-18T03:29:14;18.20;;;10.18;;
83278;SDS011;73398;51.844;10.790;2023-11-18T03:31:40;20.55;;;11.13;;
83278;SDS011;73398;51.844;10.790;2023-11-18T03:34:09;23.42;;;11.65;;
83278;SDS011;73398;51.844;10.790;2023-11-18T03:36:35;19.73;;;11.25;;
83278;SDS011;73398;51.844;10.790;2023-11-18T03:39:01;22.02;;;11.95;;
83278;SDS011;73398;51.844;10.790;2023-11-18T03:41:28;20.33;;;10.85;;
83278;SDS011;73398;51.844;10.790;2023-11-18T03:43:55;19.00;;;10.57;;
83278;SDS011;73398;51.844;10.790;2023-11-18T03:46:21;17.02;;;9.65;;
83278;SDS011;73398;51.844;10.790;2023-11-18T03:48:47;17.98;;;9.85;;
83278;SDS011;73398;51.844;10.790;2023-11-18T03:53:39;17.17;;;9.60;;
83278;SDS011;73398;51.844;10.790;2023-11-18T03:56:05;19.52;;;10.02;;
83278;SDS011;73398;51.844;10.790;2023-11-18T03:58:31;16.05;;;9.00;;
83278;SDS011;73398;51.844;10.790;2023-11-18T04:00:57;16.35;;;8.88;;
83278;SDS011;73398;51.844;10.790;2023-11-18T04:03:24;15.77;;;8.48;;
83278;SDS011;73398;51.844;10.790;2023-11-18T04:05:50;16.85;;;8.85;;
83278;SDS011;73398;51.844;10.790;2023-11-18T04:08:16;13.23;;;8.07;;
83278;SDS011;73398;51.844;10.790;2023-11-18T04:10:42;16.20;;;8.05;;
83278;SDS011;73398;51.844;10.790;2023-11-18T04:13:08;18.90;;;9.40;;
83278;SDS011;73398;51.844;10.790;2023-11-18T04:15:34;14.68;;;7.93;;
83278;SDS011;73398;51.844;10.790;2023-11-18T04:18:00;11.52;;;7.30;;
83278;SDS011;73398;51.844;10.790;2023-11-18T04:20:26;12.00;;;6.82;;
83278;SDS011;73398;51.844;10.790;2023-11-18T04:22:52;13.57;;;7.68;;
83278;SDS011;73398;51.844;10.790;2023-11-18T04:25:19;12.65;;;7.63;;
83278;SDS011;73398;51.844;10.790;2023-11-18T04:27:46;15.23;;;8.13;;
83278;SDS011;73398;51.844;10.790;2023-11-18T04:30:12;13.98;;;7.93;;
83278;SDS011;73398;51.844;10.790;2023-11-18T04:32:38;14.30;;;8.75;;
83278;SDS011;73398;51.844;10.790;2023-11-18T04:35:06;14.95;;;7.88;;
83278;SDS011;73398;51.844;10.790;2023-11-18T04:37:34;13.55;;;7.68;;
83278;SDS011;73398;51.844;10.790;2023-11-18T04:40:01;13.20;;;7.95;;
83278;SDS011;73398;51.844;10.790;2023-11-18T04:42:27;17.67;;;9.02;;
83278;SDS011;73398;51.844;10.790;2023-11-18T04:44:54;25.35;;;12.50;;
83278;SDS011;73398;51.844;10.790;2023-11-18T04:47:20;34.17;;;16.88;;
83278;SDS011;73398;51.844;10.790;2023-11-18T04:49:46;31.48;;;15.93;;
83278;SDS011;73398;51.844;10.790;2023-11-18T04:52:12;29.33;;;13.82;;
83278;SDS011;73398;51.844;10.790;2023-11-18T04:54:38;25.73;;;12.88;;
83278;SDS011;73398;51.844;10.790;2023-11-18T04:57:04;30.63;;;16.02;;
83278;SDS011;73398;51.844;10.790;2023-11-18T04:59:31;25.52;;;14.68;;
83278;SDS011;73398;51.844;10.790;2023-11-18T05:01:57;53.63;;;23.48;;
83278;SDS011;73398;51.844;10.790;2023-11-18T05:04:23;45.53;;;19.45;;
83278;SDS011;73398;51.844;10.790;2023-11-18T05:06:49;27.33;;;13.90;;
83278;SDS011;73398;51.844;10.790;2023-11-18T05:09:16;45.42;;;21.83;;
83278;SDS011;73398;51.844;10.790;2023-11-18T05:11:43;48.17;;;25.05;;
83278;SDS011;73398;51.844;10.790;2023-11-18T05:14:10;40.65;;;20.50;;
83278;SDS011;73398;51.844;10.790;2023-11-18T05:16:36;44.05;;;19.35;;
83278;SDS011;73398;51.844;10.790;2023-11-18T05:19:02;41.30;;;17.30;;
83278;SDS011;73398;51.844;10.790;2023-11-18T05:21:28;40.20;;;17.23;;
83278;SDS011;73398;51.844;10.790;2023-11-18T05:23:54;32.70;;;12.88;;
83278;SDS011;73398;51.844;10.790;2023-11-18T05:26:20;33.55;;;15.13;;
83278;SDS011;73398;51.844;10.790;2023-11-18T05:28:46;33.38;;;15.48;;
83278;SDS011;73398;51.844;10.790;2023-11-18T05:31:14;36.95;;;15.98;;
83278;SDS011;73398;51.844;10.790;2023-11-18T05:33:40;27.90;;;14.70;;
83278;SDS011;73398;51.844;10.790;2023-11-18T05:36:06;28.08;;;13.60;;
83278;SDS011;73398;51.844;10.790;2023-11-18T05:38:32;28.90;;;13.77;;
83278;SDS011;73398;51.844;10.790;2023-11-18T05:41:00;25.42;;;12.85;;
83278;SDS011;73398;51.844;10.790;2023-11-18T05:43:28;24.85;;;11.63;;
83278;SDS011;73398;51.844;10.790;2023-11-18T05:46:00;21.60;;;11.60;;
83278;SDS011;73398;51.844;10.790;2023-11-18T05:48:46;21.00;;;10.07;;
83278;SDS011;73398;51.844;10.790;2023-11-18T05:51:12;29.05;;;14.00;;
83278;SDS011;73398;51.844;10.790;2023-11-18T05:53:41;24.52;;;10.02;;
83278;SDS011;73398;51.844;10.790;2023-11-18T05:56:09;17.67;;;9.07;;
83278;SDS011;73398;51.844;10.790;2023-11-18T05:58:35;17.50;;;8.95;;
83278;SDS011;73398;51.844;10.790;2023-11-18T06:01:02;23.15;;;11.82;;
83278;SDS011;73398;51.844;10.790;2023-11-18T06:03:28;23.23;;;11.50;;
83278;SDS011;73398;51.844;10.790;2023-11-18T06:05:54;25.83;;;11.98;;
83278;SDS011;73398;51.844;10.790;2023-11-18T06:08:21;25.05;;;11.20;;
83278;SDS011;73398;51.844;10.790;2023-11-18T06:10:47;23.48;;;10.35;;
83278;SDS011;73398;51.844;10.790;2023-11-18T06:13:14;20.02;;;9.90;;
83278;SDS011;73398;51.844;10.790;2023-11-18T06:15:41;23.33;;;11.02;;
83278;SDS011;73398;51.844;10.790;2023-11-18T06:18:08;15.38;;;8.27;;
83278;SDS011;73398;51.844;10.790;2023-11-18T06:20:34;19.33;;;8.30;;
83278;SDS011;73398;51.844;10.790;2023-11-18T06:23:01;15.98;;;8.52;;
83278;SDS011;73398;51.844;10.790;2023-11-18T06:25:27;24.88;;;9.45;;
83278;SDS011;73398;51.844;10.790;2023-11-18T06:27:54;19.27;;;9.40;;
83278;SDS011;73398;51.844;10.790;2023-11-18T06:30:20;20.63;;;11.30;;
83278;SDS011;73398;51.844;10.790;2023-11-18T06:32:47;18.27;;;10.80;;
83278;SDS011;73398;51.844;10.790;2023-11-18T06:35:13;15.05;;;8.52;;
83278;SDS011;73398;51.844;10.790;2023-11-18T06:37:40;15.60;;;7.40;;
83278;SDS011;73398;51.844;10.790;2023-11-18T06:40:07;34.53;;;15.15;;
83278;SDS011;73398;51.844;10.790;2023-11-18T06:42:41;30.10;;;14.38;;
83278;SDS011;73398;51.844;10.790;2023-11-18T06:45:08;36.63;;;16.27;;
83278;SDS011;73398;51.844;10.790;2023-11-18T06:47:34;33.85;;;15.38;;
83278;SDS011;73398;51.844;10.790;2023-11-18T06:50:01;27.40;;;12.68;;
83278;SDS011;73398;51.844;10.790;2023-11-18T06:52:27;27.05;;;12.43;;
83278;SDS011;73398;51.844;10.790;2023-11-18T06:54:53;29.35;;;13.90;;
83278;SDS011;73398;51.844;10.790;2023-11-18T06:57:20;24.00;;;13.05;;
83278;SDS011;73398;51.844;10.790;2023-11-18T06:59:46;23.05;;;12.88;;
83278;SDS011;73398;51.844;10.790;2023-11-18T07:02:13;18.20;;;10.75;;
83278;SDS011;73398;51.844;10.790;2023-11-18T07:04:40;20.92;;;11.52;;
83278;SDS011;73398;51.844;10.790;2023-11-18T07:07:06;43.25;;;35.10;;
83278;SDS011;73398;51.844;10.790;2023-11-18T07:09:33;37.28;;;20.35;;
83278;SDS011;73398;51.844;10.790;2023-11-18T07:12:01;19.40;;;10.57;;
83278;SDS011;73398;51.844;10.790;2023-11-18T07:14:28;16.60;;;9.75;;
83278;SDS011;73398;51.844;10.790;2023-11-18T07:16:54;31.50;;;13.23;;
83278;SDS011;73398;51.844;10.790;2023-11-18T07:19:20;17.05;;;9.60;;
83278;SDS011;73398;51.844;10.790;2023-11-18T07:21:46;26.20;;;12.75;;
83278;SDS011;73398;51.844;10.790;2023-11-18T07:24:12;32.63;;;18.35;;
83278;SDS011;73398;51.844;10.790;2023-11-18T07:26:38;45.67;;;23.77;;
83278;SDS011;73398;51.844;10.790;2023-11-18T07:29:04;56.95;;;33.00;;
83278;SDS011;73398;51.844;10.790;2023-11-18T07:31:32;62.90;;;34.95;;
83278;SDS011;73398;51.844;10.790;2023-11-18T07:34:00;55.85;;;30.52;;
83278;SDS011;73398;51.844;10.790;2023-11-18T07:36:26;44.63;;;22.85;;
83278;SDS011;73398;51.844;10.790;2023-11-18T07:38:53;30.98;;;16.88;;
83278;SDS011;73398;51.844;10.790;2023-11-18T07:41:20;68.10;;;27.70;;
83278;SDS011;73398;51.844;10.790;2023-11-18T07:43:52;232.68;;;80.13;;
83278;SDS011;73398;51.844;10.790;2023-11-18T07:46:20;63.13;;;28.58;;
83278;SDS011;73398;51.844;10.790;2023-11-18T07:48:49;69.55;;;30.92;;
83278;SDS011;73398;51.844;10.790;2023-11-18T07:51:17;30.33;;;15.23;;
83278;SDS011;73398;51.844;10.790;2023-11-18T07:53:43;21.98;;;13.07;;
83278;SDS011;73398;51.844;10.790;2023-11-18T07:56:09;21.10;;;11.20;;
83278;SDS011;73398;51.844;10.790;2023-11-18T07:58:37;19.25;;;10.73;;
83278;SDS011;73398;51.844;10.790;2023-11-18T08:01:03;58.20;;;26.52;;
83278;SDS011;73398;51.844;10.790;2023-11-18T08:03:33;77.80;;;35.22;;
83278;SDS011;73398;51.844;10.790;2023-11-18T08:05:59;59.63;;;29.95;;
83278;SDS011;73398;51.844;10.790;2023-11-18T08:08:26;41.30;;;20.90;;
83278;SDS011;73398;51.844;10.790;2023-11-18T08:10:52;27.88;;;15.18;;
83278;SDS011;73398;51.844;10.790;2023-11-18T08:13:20;20.38;;;12.90;;
83278;SDS011;73398;51.844;10.790;2023-11-18T08:15:46;19.13;;;11.82;;
83278;SDS011;73398;51.844;10.790;2023-11-18T08:18:12;21.33;;;13.00;;
83278;SDS011;73398;51.844;10.790;2023-11-18T08:20:38;46.35;;;21.70;;
83278;SDS011;73398;51.844;10.790;2023-11-18T08:23:04;39.15;;;18.40;;
83278;SDS011;73398;51.844;10.790;2023-11-18T08:25:31;29.90;;;14.65;;
83278;SDS011;73398;51.844;10.790;2023-11-18T08:28:01;28.52;;;13.50;;
83278;SDS011;73398;51.844;10.790;2023-11-18T08:30:27;27.65;;;14.38;;
83278;SDS011;73398;51.844;10.790;2023-11-18T08:32:53;24.13;;;12.38;;
83278;SDS011;73398;51.844;10.790;2023-11-18T08:35:19;23.45;;;12.38;;
83278;SDS011;73398;51.844;10.790;2023-11-18T08:37:46;26.17;;;14.60;;
83278;SDS011;73398;51.844;10.790;2023-11-18T08:40:12;39.15;;;19.80;;
83278;SDS011;73398;51.844;10.790;2023-11-18T08:42:47;58.38;;;28.50;;
83278;SDS011;73398;51.844;10.790;2023-11-18T08:45:18;21.40;;;11.65;;
83278;SDS011;73398;51.844;10.790;2023-11-18T08:47:46;10.75;;;6.18;;
83278;SDS011;73398;51.844;10.790;2023-11-18T08:50:13;7.40;;;4.80;;
83278;SDS011;73398;51.844;10.790;2023-11-18T08:52:39;8.63;;;5.70;;
83278;SDS011;73398;51.844;10.790;2023-11-18T08:55:11;8.93;;;5.68;;
83278;SDS011;73398;51.844;10.790;2023-11-18T08:57:46;6.82;;;5.00;;
83278;SDS011;73398;51.844;10.790;2023-11-18T09:00:27;7.72;;;4.85;;
83278;SDS011;73398;51.844;10.790;2023-11-18T09:03:12;7.50;;;5.43;;
83278;SDS011;73398;51.844;10.790;2023-11-18T09:05:43;12.07;;;6.28;;
83278;SDS011;73398;51.844;10.790;2023-11-18T09:08:21;7.78;;;4.72;;
83278;SDS011;73398;51.844;10.790;2023-11-18T09:10:47;18.30;;;9.05;;
83278;SDS011;73398;51.844;10.790;2023-11-18T09:13:13;10.80;;;6.65;;
83278;SDS011;73398;51.844;10.790;2023-11-18T09:15:39;12.68;;;7.18;;
83278;SDS011;73398;51.844;10.790;2023-11-18T09:18:07;10.65;;;6.18;;
83278;SDS011;73398;51.844;10.790;2023-11-18T09:20:35;12.43;;;6.88;;
83278;SDS011;73398;51.844;10.790;2023-11-18T09:23:01;11.80;;;6.93;;
83278;SDS011;73398;51.844;10.790;2023-11-18T09:25:27;8.80;;;4.75;;
83278;SDS011;73398;51.844;10.790;2023-11-18T09:27:53;9.75;;;5.72;;
83278;SDS011;73398;51.844;10.790;2023-11-18T09:30:19;8.20;;;4.85;;
83278;SDS011;73398;51.844;10.790;2023-11-18T09:32:45;8.13;;;4.20;;
83278;SDS011;73398;51.844;10.790;2023-11-18T09:35:12;7.72;;;5.50;;
83278;SDS011;73398;51.844;10.790;2023-11-18T09:37:39;8.98;;;5.03;;
83278;SDS011;73398;51.844;10.790;2023-11-18T09:40:08;8.35;;;5.10;;
83278;SDS011;73398;51.844;10.790;2023-11-18T09:42:39;6.03;;;4.38;;
83278;SDS011;73398;51.844;10.790;2023-11-18T09:45:05;8.18;;;5.03;;
83278;SDS011;73398;51.844;10.790;2023-11-18T09:47:36;7.93;;;4.20;;
83278;SDS011;73398;51.844;10.790;2023-11-18T09:50:05;5.72;;;4.25;;
83278;SDS011;73398;51.844;10.790;2023-11-18T09:52:35;8.88;;;5.18;;
83278;SDS011;73398;51.844;10.790;2023-11-18T09:55:02;7.60;;;5.05;;
83278;SDS011;73398;51.844;10.790;2023-11-18T09:57:38;5.80;;;4.22;;
83278;SDS011;73398;51.844;10.790;2023-11-18T10:00:06;11.27;;;6.22;;
83278;SDS011;73398;51.844;10.790;2023-11-18T10:02:45;8.32;;;5.13;;
83278;SDS011;73398;51.844;10.790;2023-11-18T10:05:11;9.77;;;5.43;;
83278;SDS011;73398;51.844;10.790;2023-11-18T10:07:39;10.38;;;4.60;;
83278;SDS011;73398;51.844;10.790;2023-11-18T10:10:07;7.57;;;4.28;;
83278;SDS011;73398;51.844;10.790;2023-11-18T10:12:40;11.20;;;5.72;;
83278;SDS011;73398;51.844;10.790;2023-11-18T10:15:07;15.13;;;6.88;;
83278;SDS011;73398;51.844;10.790;2023-11-18T10:17:36;7.43;;;4.00;;
83278;SDS011;73398;51.844;10.790;2023-11-18T10:20:10;6.28;;;4.15;;
83278;SDS011;73398;51.844;10.790;2023-11-18T10:22:41;8.75;;;4.60;;
83278;SDS011;73398;51.844;10.790;2023-11-18T10:25:07;6.78;;;3.80;;
83278;SDS011;73398;51.844;10.790;2023-11-18T10:27:33;5.57;;;3.90;;
83278;SDS011;73398;51.844;10.790;2023-11-18T10:30:03;6.50;;;4.05;;
83278;SDS011;73398;51.844;10.790;2023-11-18T10:32:30;5.47;;;3.70;;
83278;SDS011;73398;51.844;10.790;2023-11-18T10:35:00;6.03;;;3.67;;
83278;SDS011;73398;51.844;10.790;2023-11-18T10:37:26;5.57;;;3.53;;
83278;SDS011;73398;51.844;10.790;2023-11-18T10:39:55;5.97;;;4.05;;
83278;SDS011;73398;51.844;10.790;2023-11-18T10:42:22;6.80;;;3.60;;
83278;SDS011;73398;51.844;10.790;2023-11-18T10:44:54;3.63;;;2.60;;
83278;SDS011;73398;51.844;10.790;2023-11-18T10:47:22;3.45;;;2.88;;
83278;SDS011;73398;51.844;10.790;2023-11-18T10:49:50;6.85;;;3.42;;
83278;SDS011;73398;51.844;10.790;2023-11-18T10:52:16;6.95;;;2.97;;
83278;SDS011;73398;51.844;10.790;2023-11-18T10:54:54;9.55;;;5.60;;
83278;SDS011;73398;51.844;10.790;2023-11-18T10:57:21;7.18;;;5.20;;
83278;SDS011;73398;51.844;10.790;2023-11-18T11:00:03;9.48;;;5.43;;
83278;SDS011;73398;51.844;10.790;2023-11-18T11:02:38;5.07;;;3.60;;
83278;SDS011;73398;51.844;10.790;2023-11-18T11:05:06;4.35;;;2.53;;
83278;SDS011;73398;51.844;10.790;2023-11-18T11:07:32;4.32;;;2.55;;
83278;SDS011;73398;51.844;10.790;2023-11-18T11:10:01;7.93;;;4.25;;
83278;SDS011;73398;51.844;10.790;2023-11-18T11:12:32;8.05;;;5.45;;
83278;SDS011;73398;51.844;10.790;2023-11-18T11:15:08;4.75;;;3.60;;
83278;SDS011;73398;51.844;10.790;2023-11-18T11:17:38;5.93;;;4.45;;
83278;SDS011;73398;51.844;10.790;2023-11-18T11:20:08;12.98;;;7.53;;
83278;SDS011;73398;51.844;10.790;2023-11-18T11:25:44;5.43;;;3.20;;
83278;SDS011;73398;51.844;10.790;2023-11-18T11:28:21;5.57;;;3.72;;
83278;SDS011;73398;51.844;10.790;2023-11-18T11:31:07;5.90;;;3.03;;
83278;SDS011;73398;51.844;10.790;2023-11-18T11:33:47;4.40;;;3.03;;
83278;SDS011;73398;51.844;10.790;2023-11-18T11:36:17;5.60;;;3.08;;
83278;SDS011;73398;51.844;10.790;2023-11-18T11:38:48;4.55;;;2.60;;
83278;SDS011;73398;51.844;10.790;2023-11-18T11:41:16;4.50;;;2.72;;
83278;SDS011;73398;51.844;10.790;2023-11-18T11:43:45;4.03;;;3.20;;
83278;SDS011;73398;51.844;10.790;2023-11-18T11:46:11;4.78;;;2.53;;
83278;SDS011;73398;51.844;10.790;2023-11-18T11:48:38;4.43;;;3.13;;
83278;SDS011;73398;51.844;10.790;2023-11-18T11:51:22;5.72;;;3.75;;
83278;SDS011;73398;51.844;10.790;2023-11-18T11:56:17;11.25;;;5.07;;
83278;SDS011;73398;51.844;10.790;2023-11-18T11:58:49;7.32;;;4.30;;
83278;SDS011;73398;51.844;10.790;2023-11-18T12:01:25;13.98;;;7.30;;
83278;SDS011;73398;51.844;10.790;2023-11-18T12:04:04;9.32;;;5.35;;
83278;SDS011;73398;51.844;10.790;2023-11-18T12:06:42;7.47;;;4.45;;
83278;SDS011;73398;51.844;10.790;2023-11-18T12:09:09;10.27;;;5.28;;
83278;SDS011;73398;51.844;10.790;2023-11-18T12:11:35;9.80;;;4.47;;
83278;SDS011;73398;51.844;10.790;2023-11-18T12:14:07;7.93;;;4.22;;
83278;SDS011;73398;51.844;10.790;2023-11-18T12:16:58;11.40;;;6.25;;
83278;SDS011;73398;51.844;10.790;2023-11-18T12:19:46;11.60;;;6.50;;
83278;SDS011;73398;51.844;10.790;2023-11-18T12:22:13;11.70;;;5.22;;
83278;SDS011;73398;51.844;10.790;2023-11-18T12:35:23;9.93;;;5.60;;
83278;SDS011;73398;51.844;10.790;2023-11-18T12:43:16;8.63;;;5.13;;
83278;SDS011;73398;51.844;10.790;2023-11-18T12:45:57;8.23;;;4.47;;
83278;SDS011;73398;51.844;10.790;2023-11-18T12:48:30;9.10;;;4.93;;
83278;SDS011;73398;51.844;10.790;2023-11-18T12:50:57;10.40;;;5.57;;
83278;SDS011;73398;51.844;10.790;2023-11-18T12:53:23;7.80;;;4.32;;
83278;SDS011;73398;51.844;10.790;2023-11-18T12:55:50;8.93;;;4.80;;
83278;SDS011;73398;51.844;10.790;2023-11-18T12:58:17;8.73;;;5.53;;
83278;SDS011;73398;51.844;10.790;2023-11-18T13:00:43;14.30;;;7.30;;
83278;SDS011;73398;51.844;10.790;2023-11-18T13:03:10;11.60;;;5.55;;
83278;SDS011;73398;51.844;10.790;2023-11-18T13:05:40;9.48;;;5.03;;
83278;SDS011;73398;51.844;10.790;2023-11-18T13:08:06;8.77;;;5.57;;
83278;SDS011;73398;51.844;10.790;2023-11-18T13:10:32;9.98;;;5.57;;
83278;SDS011;73398;51.844;10.790;2023-11-18T13:12:59;7.72;;;5.75;;
83278;SDS011;73398;51.844;10.790;2023-11-18T13:15:25;11.38;;;7.00;;
83278;SDS011;73398;51.844;10.790;2023-11-18T13:18:02;11.05;;;6.72;;
83278;SDS011;73398;51.844;10.790;2023-11-18T13:20:32;10.95;;;6.80;;
83278;SDS011;73398;51.844;10.790;2023-11-18T13:23:01;11.82;;;7.13;;
83278;SDS011;73398;51.844;10.790;2023-11-18T13:25:33;12.75;;;7.30;;
83278;SDS011;73398;51.844;10.790;2023-11-18T13:27:59;15.90;;;9.73;;
83278;SDS011;73398;51.844;10.790;2023-11-18T13:30:26;13.38;;;6.50;;
83278;SDS011;73398;51.844;10.790;2023-11-18T13:32:54;17.23;;;8.95;;
83278;SDS011;73398;51.844;10.790;2023-11-18T13:35:21;11.80;;;6.68;;
83278;SDS011;73398;51.844;10.790;2023-11-18T13:37:48;10.20;;;6.43;;
83278;SDS011;73398;51.844;10.790;2023-11-18T13:40:15;10.63;;;5.40;;
83278;SDS011;73398;51.844;10.790;2023-11-18T13:42:43;11.52;;;7.03;;
83278;SDS011;73398;51.844;10.790;2023-11-18T13:45:11;8.85;;;6.70;;
83278;SDS011;73398;51.844;10.790;2023-11-18T13:47:40;12.23;;;7.95;;
83278;SDS011;73398;51.844;10.790;2023-11-18T13:50:07;17.88;;;11.77;;
83278;SDS011;73398;51.844;10.790;2023-11-18T13:52:34;13.82;;;6.55;;
83278;SDS011;73398;51.844;10.790;2023-11-18T13:55:00;21.60;;;12.35;;
83278;SDS011;73398;51.844;10.790;2023-11-18T13:57:30;41.13;;;20.42;;
83278;SDS011;73398;51.844;10.790;2023-11-18T13:59:56;29.92;;;16.65;;
83278;SDS011;73398;51.844;10.790;2023-11-18T14:02:24;29.08;;;16.70;;
83278;SDS011;73398;51.844;10.790;2023-11-18T14:04:50;28.73;;;19.02;;
83278;SDS011;73398;51.844;10.790;2023-11-18T14:07:17;24.40;;;15.52;;
83278;SDS011;73398;51.844;10.790;2023-11-18T14:09:43;19.67;;;11.52;;
83278;SDS011;73398;51.844;10.790;2023-11-18T14:12:10;32.83;;;16.88;;
83278;SDS011;73398;51.844;10.790;2023-11-18T14:14:37;17.20;;;9.25;;
83278;SDS011;73398;51.844;10.790;2023-11-18T14:17:03;10.93;;;7.30;;
83278;SDS011;73398;51.844;10.790;2023-11-18T14:19:31;10.95;;;6.75;;
83278;SDS011;73398;51.844;10.790;2023-11-18T14:22:00;10.55;;;5.95;;
83278;SDS011;73398;51.844;10.790;2023-11-18T14:24:26;13.35;;;7.63;;
83278;SDS011;73398;51.844;10.790;2023-11-18T14:26:56;12.48;;;9.10;;
83278;SDS011;73398;51.844;10.790;2023-11-18T14:29:23;14.50;;;8.43;;
83278;SDS011;73398;51.844;10.790;2023-11-18T14:31:49;10.52;;;6.40;;
83278;SDS011;73398;51.844;10.790;2023-11-18T14:34:15;14.63;;;7.82;;
83278;SDS011;73398;51.844;10.790;2023-11-18T14:36:41;12.27;;;7.55;;
83278;SDS011;73398;51.844;10.790;2023-11-18T14:39:10;8.98;;;5.10;;
83278;SDS011;73398;51.844;10.790;2023-11-18T14:41:39;13.35;;;8.18;;
83278;SDS011;73398;51.844;10.790;2023-11-18T14:44:05;13.68;;;8.82;;
83278;SDS011;73398;51.844;10.790;2023-11-18T14:46:34;14.10;;;8.60;;
83278;SDS011;73398;51.844;10.790;2023-11-18T14:49:00;16.83;;;9.55;;
83278;SDS011;73398;51.844;10.790;2023-11-18T14:51:26;12.00;;;6.90;;